This is the latest recevied weather packets stored in our database for station/object N3SBK. If no packets are shown the sender has not sent any weather packets the latest 10 day(s).
| Time | Temp. | Humidity | Pressure | Rain* | Wind** | Luminosity | Snow |
|---|---|---|---|---|---|---|---|
| 1787869566 | 21.11° C | 93% | 1006.1 hPa | 0 mm | - | 42 W/m² | - |
| 1787869261 | 21.11° C | 90% | 1006 hPa | 0 mm | - | 29 W/m² | - |
| 1787868960 | 21.11° C | 90% | 1006.2 hPa | 0 mm | - | 29 W/m² | - |
| 1787868655 | 21.67° C | 89% | 1006 hPa | 0 mm | - | 27 W/m² | - |
| 1787868353 | 23.33° C | 79% | 1006.1 hPa | 0 mm | - | 24 W/m² | - |
| 1787868049 | 23.33° C | 79% | 1006.2 hPa | 3.05 mm | - | 24 W/m² | - |
| 1787867744 | 23.89° C | 78% | 1006.4 hPa | 1.27 mm | - | 20 W/m² | - |
| 1787867439 | 24.44° C | 76% | 1006.1 hPa | 0 mm | - | 4 W/m² | - |
| 1787867134 | 24.44° C | 76% | 1005.9 hPa | 0 mm | - | 5 W/m² | - |
| 1787866829 | 25° C | 75% | 1005.8 hPa | 0 mm | - | 20 W/m² | - |
| 1787866524 | 25.56° C | 75% | 1006.1 hPa | 0 mm | - | 25 W/m² | - |
| 1787866222 | 25.56° C | 75% | 1005.9 hPa | 0 mm | - | 66 W/m² | - |
| 1787865918 | 25.56° C | 74% | 1005.6 hPa | 0 mm | - | 90 W/m² | - |
| 1787865613 | 25.56° C | 73% | 1005.8 hPa | 0 mm | - | 97 W/m² | - |
| 1787865313 | 26.11° C | 72% | 1005.8 hPa | 0 mm | - | 43 W/m² | - |
| 1787865009 | 26.67° C | 68% | 1005.8 hPa | 0 mm | - | 55 W/m² | - |
| 1787864704 | 27.22° C | 64% | 1005.9 hPa | 0 mm | - | 75 W/m² | - |
| 1787864403 | 28.33° C | 63% | 1005.8 hPa | 0 mm | - | 102 W/m² | - |
| 1787864098 | 28.89° C | 57% | 1006 hPa | 0 mm | - | 337 W/m² | - |
| 1787863796 | 29.44° C | 58% | 1006.1 hPa | 0 mm | - | 327 W/m² | - |
| 1787863495 | 28.89° C | 55% | 1006.2 hPa | 0 mm | - | 369 W/m² | - |
| 1787863192 | 28.33° C | 61% | 1005.8 hPa | 0 mm | - | 352 W/m² | - |
| 1787862887 | 28.89° C | 59% | 1005.9 hPa | 0 mm | - | 120 W/m² | - |
| 1787862587 | 28.89° C | 56% | 1005.8 hPa | 0 mm | - | 416 W/m² | - |
| 1787862282 | 28.89° C | 55% | 1005.9 hPa | 0 mm | - | 97 W/m² | - |
* Rain latest hour (hover to see other rain measurements)
** Current wind speed in m/s (hover to see current wind gust speed)